createdAt,value
2023-02-02T00:00:02.038Z,79.51
2023-02-02T00:02:05.449Z,79.57
2023-02-02T00:04:08.642Z,79.68
2023-02-02T00:06:12.036Z,79.77
2023-02-02T00:08:15.147Z,79.86
2023-02-02T00:10:18.791Z,79.86
2023-02-02T00:12:23.183Z,79.99
2023-02-02T00:14:26.660Z,80.16
2023-02-02T00:16:41.870Z,79.97
2023-02-02T00:18:44.861Z,80.25
2023-02-02T00:20:49.424Z,80.21
2023-02-02T00:22:52.476Z,80.53
2023-02-02T00:24:55.488Z,80.91
2023-02-02T00:27:00.442Z,81.11
2023-02-02T00:29:06.427Z,81.21
2023-02-02T00:31:09.547Z,81.28
2023-02-02T00:33:12.677Z,81.40
2023-02-02T00:35:16.615Z,81.34
2023-02-02T00:37:19.741Z,81.21
2023-02-02T00:39:26.069Z,81.38
2023-02-02T00:41:29.091Z,81.38
2023-02-02T00:43:32.178Z,81.26
2023-02-02T00:45:35.847Z,81.24
2023-02-02T00:47:39.028Z,81.40
2023-02-02T00:49:42.935Z,81.46
2023-02-02T00:51:45.960Z,81.34
2023-02-02T00:53:50.399Z,81.37
2023-02-02T00:55:54.533Z,81.13
2023-02-02T00:57:57.554Z,81.37
2023-02-02T01:00:00.732Z,81.23
2023-02-02T01:02:05.099Z,81.22
2023-02-02T01:04:08.404Z,81.23
2023-02-02T01:06:11.775Z,81.35
2023-02-02T01:08:14.815Z,81.18
2023-02-02T01:10:19.765Z,81.17
2023-02-02T01:12:22.860Z,81.12
2023-02-02T01:14:26.520Z,81.23
2023-02-02T01:16:32.111Z,81.40
2023-02-02T01:18:36.723Z,81.37
2023-02-02T01:20:39.760Z,81.33
2023-02-02T01:22:42.798Z,81.48
2023-02-02T01:24:45.950Z,81.60
2023-02-02T01:26:49.121Z,81.71
2023-02-02T01:28:52.221Z,82.06
2023-02-02T01:30:56.885Z,81.65
2023-02-02T01:32:59.925Z,82.04
2023-02-02T01:35:04.427Z,82.13
2023-02-02T01:37:07.561Z,82.24
2023-02-02T01:39:10.623Z,82.39
2023-02-02T01:41:16.652Z,82.49
2023-02-02T01:43:24.120Z,82.44
2023-02-02T01:45:29.582Z,82.51
2023-02-02T01:47:36.371Z,82.65
2023-02-02T01:49:41.194Z,82.49
2023-02-02T01:51:50.293Z,82.62
2023-02-02T01:53:56.124Z,82.55
2023-02-02T01:56:00.146Z,82.48
2023-02-02T01:58:05.927Z,82.30
2023-02-02T02:00:12.269Z,82.52
2023-02-02T02:02:18.303Z,82.71
2023-02-02T02:04:22.096Z,82.95
2023-02-02T02:06:26.219Z,83.30
2023-02-02T02:08:35.016Z,83.53
2023-02-02T02:10:38.482Z,83.57
2023-02-02T02:12:41.571Z,84.02
2023-02-02T02:15:06.723Z,84.20
2023-02-02T02:17:22.938Z,84.52
2023-02-02T02:20:19.369Z,84.62
2023-02-02T02:22:40.845Z,84.90
2023-02-02T02:25:33.712Z,85.24
2023-02-02T02:28:19.232Z,85.32
2023-02-02T02:30:49.477Z,85.40
2023-02-02T02:33:01.683Z,85.47
2023-02-02T02:35:13.272Z,85.69
2023-02-02T02:37:24.854Z,85.74
2023-02-02T02:39:33.440Z,85.69
2023-02-02T02:41:42.675Z,85.85
2023-02-02T02:43:53.926Z,85.98
2023-02-02T02:45:57.655Z,85.92
2023-02-02T02:48:04.357Z,86.13
2023-02-02T02:50:08.608Z,86.18
2023-02-02T02:52:11.772Z,86.07
2023-02-02T02:54:18.190Z,86.28
2023-02-02T02:56:33.098Z,86.21
2023-02-02T02:58:46.588Z,86.09
2023-02-02T03:01:01.183Z,86.26
2023-02-02T03:03:12.217Z,86.08
2023-02-02T03:05:29.060Z,86.25
2023-02-02T03:07:39.511Z,86.00
2023-02-02T03:09:45.684Z,85.93
2023-02-02T03:11:48.825Z,86.02
2023-02-02T03:13:51.969Z,85.90
2023-02-02T03:15:55.359Z,85.64
2023-02-02T03:17:58.395Z,85.61
2023-02-02T03:20:02.812Z,85.38
2023-02-02T03:22:05.940Z,85.20
2023-02-02T03:24:09.300Z,84.92
2023-02-02T03:26:12.456Z,84.84
2023-02-02T03:28:17.644Z,85.01
2023-02-02T03:30:21.333Z,84.92
2023-02-02T03:32:24.496Z,84.70
2023-02-02T03:34:27.515Z,84.74
2023-02-02T03:36:31.932Z,84.67
2023-02-02T03:38:35.066Z,84.86
2023-02-02T03:40:38.083Z,84.78
2023-02-02T03:42:41.237Z,84.78
2023-02-02T03:44:44.275Z,84.64
2023-02-02T03:46:47.366Z,84.60
2023-02-02T03:48:50.401Z,84.33
2023-02-02T03:50:53.758Z,84.45
2023-02-02T03:52:58.182Z,84.19
2023-02-02T03:55:01.575Z,84.13
2023-02-02T03:57:04.683Z,84.04
2023-02-02T03:59:07.742Z,84.09
2023-02-02T04:01:14.299Z,83.93
2023-02-02T04:03:17.342Z,83.91
2023-02-02T04:05:20.421Z,83.99
2023-02-02T04:07:23.495Z,84.12
2023-02-02T04:09:28.085Z,83.98
2023-02-02T04:11:31.466Z,84.00
2023-02-02T04:13:34.497Z,84.05
2023-02-02T04:15:37.512Z,84.26
2023-02-02T04:17:40.576Z,84.33
2023-02-02T04:19:43.647Z,84.08
2023-02-02T04:21:46.807Z,84.00
2023-02-02T04:23:50.025Z,84.28
2023-02-02T04:25:54.712Z,84.21
2023-02-02T04:27:57.773Z,84.16
2023-02-02T04:30:00.829Z,84.24
2023-02-02T04:32:03.915Z,84.13
2023-02-02T04:34:06.947Z,84.00
2023-02-02T04:36:10.179Z,83.86
2023-02-02T04:38:13.271Z,83.86
2023-02-02T04:40:16.384Z,83.90
2023-02-02T04:42:20.821Z,83.83
2023-02-02T04:44:23.900Z,83.40
2023-02-02T04:46:28.537Z,83.31
2023-02-02T04:48:31.952Z,83.13
2023-02-02T04:50:35.057Z,83.03
2023-02-02T04:52:38.233Z,82.81
2023-02-02T04:54:41.349Z,82.73
2023-02-02T04:56:44.389Z,82.57
2023-02-02T04:58:48.760Z,82.59
2023-02-02T05:00:51.841Z,82.41
2023-02-02T05:02:54.951Z,82.48
2023-02-02T05:04:58.187Z,82.23
2023-02-02T05:07:01.181Z,82.33
2023-02-02T05:09:04.266Z,82.49
2023-02-02T05:11:08.303Z,82.23
2023-02-02T05:13:11.309Z,82.45
2023-02-02T05:15:15.801Z,82.72
2023-02-02T05:17:18.873Z,82.62
2023-02-02T05:19:21.934Z,82.69
2023-02-02T05:21:25.115Z,82.60
2023-02-02T05:23:28.379Z,82.68
2023-02-02T05:25:31.472Z,83.08
2023-02-02T05:27:35.085Z,83.00
2023-02-02T05:29:38.140Z,83.03
2023-02-02T05:31:42.529Z,83.05
2023-02-02T05:33:45.653Z,82.88
2023-02-02T05:35:49.400Z,83.00
2023-02-02T05:37:52.347Z,82.97
2023-02-02T05:39:55.401Z,82.77
2023-02-02T05:41:58.508Z,82.93
2023-02-02T05:44:01.562Z,82.91
2023-02-02T05:46:04.901Z,82.95
2023-02-02T05:48:11.059Z,82.85
2023-02-02T05:50:14.174Z,82.86
2023-02-02T05:52:20.662Z,82.71
2023-02-02T05:54:24.094Z,82.58
2023-02-02T05:56:27.223Z,82.56
2023-02-02T05:58:30.280Z,82.49
2023-02-02T06:00:33.371Z,82.58
2023-02-02T06:02:36.375Z,82.36
2023-02-02T06:04:40.982Z,82.48
2023-02-02T06:06:44.141Z,82.43
2023-02-02T06:08:47.210Z,82.26
2023-02-02T06:10:50.263Z,82.31
2023-02-02T06:12:53.314Z,82.53
2023-02-02T06:14:56.398Z,82.50
2023-02-02T06:16:59.487Z,82.38
2023-02-02T06:19:02.611Z,82.39
2023-02-02T06:21:08.195Z,82.54
2023-02-02T06:23:11.197Z,82.63
2023-02-02T06:25:14.219Z,82.53
2023-02-02T06:27:17.271Z,82.57
2023-02-02T06:29:20.320Z,82.70
2023-02-02T06:31:23.579Z,82.52
2023-02-02T06:33:26.701Z,82.68
2023-02-02T06:35:29.832Z,82.56
2023-02-02T06:37:35.200Z,82.50
2023-02-02T06:39:38.264Z,82.42
2023-02-02T06:41:41.532Z,82.54
2023-02-02T06:43:44.590Z,82.62
2023-02-02T06:45:47.701Z,82.68
2023-02-02T06:47:50.764Z,82.46
2023-02-02T06:49:53.818Z,82.42
2023-02-02T06:51:56.923Z,82.12
2023-02-02T06:54:01.418Z,82.10
2023-02-02T06:56:06.818Z,81.58
2023-02-02T06:58:09.865Z,81.60
2023-02-02T07:00:14.583Z,81.49
2023-02-02T07:02:17.669Z,81.42
2023-02-02T07:04:20.787Z,81.05
2023-02-02T07:06:25.718Z,81.00
2023-02-02T07:08:28.817Z,80.95
2023-02-02T07:11:14.000Z,80.96
2023-02-02T07:12:57.422Z,81.30
2023-02-02T07:15:00.525Z,81.26
2023-02-02T07:17:03.662Z,81.58
2023-02-02T07:19:06.797Z,81.66
2023-02-02T07:21:10.677Z,81.64
2023-02-02T07:23:13.736Z,82.08
2023-02-02T07:25:17.095Z,82.15
2023-02-02T07:27:21.609Z,82.08
2023-02-02T07:29:24.827Z,82.45
2023-02-02T07:31:29.192Z,82.51
2023-02-02T07:33:32.362Z,82.34
2023-02-02T07:35:36.848Z,82.57
2023-02-02T07:37:40.469Z,82.74
2023-02-02T07:39:44.313Z,82.50
2023-02-02T07:41:47.637Z,82.69
2023-02-02T07:44:02.943Z,82.71
2023-02-02T07:46:09.988Z,82.78
2023-02-02T07:48:13.087Z,82.80
2023-02-02T07:50:16.246Z,82.79
2023-02-02T07:52:19.503Z,82.73
2023-02-02T07:54:23.017Z,82.75
2023-02-02T07:56:28.183Z,82.72
2023-02-02T07:58:31.193Z,82.79
2023-02-02T08:00:35.618Z,82.64
2023-02-02T08:02:38.814Z,82.48
2023-02-02T08:04:41.872Z,82.34
2023-02-02T08:06:45.111Z,82.52
2023-02-02T08:08:49.105Z,82.49
2023-02-02T08:10:53.334Z,82.35
2023-02-02T08:12:56.434Z,82.27
2023-02-02T08:14:59.717Z,82.05
2023-02-02T08:17:04.424Z,82.07
2023-02-02T08:19:07.754Z,81.95
2023-02-02T08:21:11.911Z,82.02
2023-02-02T08:23:16.699Z,82.04
2023-02-02T08:25:19.711Z,81.89
2023-02-02T08:27:22.750Z,82.03
2023-02-02T08:29:25.832Z,81.89
2023-02-02T08:31:31.102Z,81.89
2023-02-02T08:33:36.306Z,81.85
2023-02-02T08:35:42.178Z,81.82
2023-02-02T08:37:45.284Z,81.80
2023-02-02T08:39:48.617Z,81.69
2023-02-02T08:41:51.862Z,81.42
2023-02-02T08:43:54.952Z,81.21
2023-02-02T08:46:04.214Z,81.32
2023-02-02T08:48:12.190Z,81.16
2023-02-02T08:50:18.347Z,81.13
2023-02-02T08:52:21.495Z,81.08
2023-02-02T08:54:24.565Z,80.93
2023-02-02T08:56:27.558Z,80.84
2023-02-02T08:58:31.259Z,80.89
2023-02-02T09:00:34.349Z,80.75
2023-02-02T09:02:37.523Z,80.72
2023-02-02T09:04:42.552Z,80.66
2023-02-02T09:06:47.259Z,80.53
2023-02-02T09:08:50.361Z,80.48
2023-02-02T09:10:53.740Z,80.13
2023-02-02T09:12:56.840Z,80.14
2023-02-02T09:15:00.055Z,79.79
2023-02-02T09:17:03.174Z,79.87
2023-02-02T09:19:06.287Z,79.81
2023-02-02T09:21:11.620Z,79.74
2023-02-02T09:23:16.173Z,79.74
2023-02-02T09:25:19.334Z,79.84
2023-02-02T09:27:22.527Z,79.91
2023-02-02T09:29:25.643Z,79.81
2023-02-02T09:31:28.720Z,80.00
2023-02-02T09:33:31.866Z,80.02
2023-02-02T09:35:35.126Z,79.82
2023-02-02T09:37:38.254Z,79.72
2023-02-02T09:39:42.866Z,79.89
2023-02-02T09:42:08.920Z,79.61
2023-02-02T09:44:20.219Z,79.70
2023-02-02T09:46:35.235Z,79.52
2023-02-02T09:48:51.070Z,79.41
2023-02-02T09:50:57.438Z,79.12
2023-02-02T09:53:07.790Z,78.98
2023-02-02T09:55:19.369Z,78.90
2023-02-02T09:57:26.666Z,78.97
2023-02-02T09:59:34.754Z,78.87
2023-02-02T10:01:42.776Z,78.76
2023-02-02T10:03:57.217Z,78.83
2023-02-02T10:06:07.142Z,78.77
2023-02-02T10:08:33.614Z,78.59
2023-02-02T10:10:44.507Z,78.22
2023-02-02T10:12:54.244Z,78.31
2023-02-02T10:15:01.482Z,77.92
2023-02-02T10:17:27.815Z,77.79
2023-02-02T10:19:32.118Z,77.52
2023-02-02T10:21:41.981Z,77.30
2023-02-02T10:23:46.677Z,77.28
2023-02-02T10:25:58.127Z,77.23
2023-02-02T10:28:05.467Z,76.82
2023-02-02T10:30:19.087Z,76.40
2023-02-02T10:32:26.518Z,76.41
2023-02-02T10:34:34.035Z,75.97
2023-02-02T10:36:51.597Z,75.63
2023-02-02T10:39:00.746Z,75.21
2023-02-02T10:41:13.073Z,75.03
2023-02-02T10:43:48.483Z,74.96
2023-02-02T10:45:52.956Z,74.67
2023-02-02T10:47:56.084Z,74.55
2023-02-02T10:50:08.969Z,74.00
2023-02-02T10:52:18.188Z,73.81
2023-02-02T10:54:55.460Z,73.35
2023-02-02T10:57:05.158Z,72.97
2023-02-02T10:59:15.103Z,72.77
2023-02-02T11:01:22.688Z,72.65
2023-02-02T11:03:30.407Z,72.46
2023-02-02T11:05:50.935Z,72.17
2023-02-02T11:07:55.501Z,72.23
2023-02-02T11:09:58.602Z,72.21
2023-02-02T11:12:10.578Z,72.00
2023-02-02T11:14:18.835Z,71.88
2023-02-02T11:16:38.907Z,71.49
2023-02-02T11:18:46.696Z,71.19
2023-02-02T11:20:49.870Z,71.07
2023-02-02T11:23:02.671Z,71.09
2023-02-02T11:25:07.649Z,71.17
2023-02-02T11:27:18.591Z,71.35
2023-02-02T11:29:27.943Z,71.05
2023-02-02T11:31:33.311Z,70.80
2023-02-02T11:33:38.050Z,70.42
2023-02-02T11:35:54.354Z,70.21
2023-02-02T11:38:01.154Z,70.07
2023-02-02T11:40:22.684Z,70.08
2023-02-02T11:42:27.491Z,69.91
2023-02-02T11:44:34.185Z,69.72
2023-02-02T11:46:39.613Z,69.48
2023-02-02T11:48:51.155Z,68.94
2023-02-02T11:50:55.981Z,68.65
2023-02-02T11:52:59.698Z,68.23
2023-02-02T11:55:10.657Z,68.08
2023-02-02T11:57:18.889Z,67.81
2023-02-02T11:59:32.799Z,67.40
2023-02-02T12:01:39.768Z,67.15
2023-02-02T12:03:49.447Z,67.04
2023-02-02T12:05:52.739Z,66.66
2023-02-02T12:07:55.863Z,66.43
2023-02-02T12:10:03.038Z,66.49
2023-02-02T12:12:16.625Z,66.37
2023-02-02T12:14:34.099Z,66.96
2023-02-02T12:16:57.112Z,66.64
2023-02-02T12:19:25.599Z,66.72
2023-02-02T12:21:40.617Z,66.73
2023-02-02T12:24:00.068Z,66.80
2023-02-02T12:26:16.194Z,66.90
2023-02-02T12:28:36.728Z,67.11
2023-02-02T12:30:50.142Z,67.14
2023-02-02T12:33:14.875Z,66.81
2023-02-02T12:35:33.228Z,66.67
2023-02-02T12:37:52.271Z,66.84
2023-02-02T12:40:15.341Z,66.49
2023-02-02T12:42:42.432Z,66.16
2023-02-02T12:44:58.536Z,66.12
2023-02-02T12:47:18.454Z,65.76
2023-02-02T12:49:35.389Z,65.38
2023-02-02T12:51:58.024Z,65.31
2023-02-02T12:54:32.894Z,64.54
2023-02-02T12:56:41.696Z,64.67
2023-02-02T12:58:57.518Z,64.36
2023-02-02T13:01:24.598Z,64.33
2023-02-02T13:03:40.883Z,64.30
2023-02-02T13:05:56.331Z,64.47
2023-02-02T13:08:05.173Z,64.42
2023-02-02T13:10:17.266Z,64.07
2023-02-02T13:12:24.495Z,64.01
2023-02-02T13:14:32.607Z,63.92
2023-02-02T13:16:40.402Z,63.38
2023-02-02T13:18:53.227Z,63.20
2023-02-02T13:21:00.728Z,63.24
2023-02-02T13:23:08.441Z,63.41
2023-02-02T13:25:21.004Z,63.53
2023-02-02T13:27:25.334Z,63.71
2023-02-02T13:29:39.018Z,63.67
2023-02-02T13:31:57.867Z,62.97
2023-02-02T13:34:15.597Z,62.37
2023-02-02T13:36:26.008Z,61.82
2023-02-02T13:38:30.909Z,61.61
2023-02-02T13:40:36.896Z,61.00
2023-02-02T13:42:49.318Z,60.25
2023-02-02T13:44:58.472Z,59.54
2023-02-02T13:47:05.119Z,58.58
2023-02-02T13:49:16.213Z,58.29
2023-02-02T13:51:51.129Z,58.05
2023-02-02T13:54:19.638Z,58.28
2023-02-02T13:56:40.507Z,57.90
2023-02-02T13:58:59.492Z,57.97
2023-02-02T14:01:07.393Z,57.65
2023-02-02T14:03:28.657Z,57.67
2023-02-02T14:05:35.813Z,58.24
2023-02-02T14:07:42.395Z,58.32
2023-02-02T14:09:49.951Z,58.45
2023-02-02T14:11:58.877Z,58.78
2023-02-02T14:14:28.388Z,58.77
2023-02-02T14:16:48.174Z,59.21
2023-02-02T14:18:56.535Z,59.48
2023-02-02T14:21:01.188Z,59.85
2023-02-02T14:23:04.288Z,60.18
2023-02-02T14:25:41.570Z,60.62
2023-02-02T14:27:58.485Z,61.11
2023-02-02T14:30:02.195Z,61.49
2023-02-02T14:32:34.511Z,61.99
2023-02-02T14:34:39.449Z,62.48
2023-02-02T14:36:54.762Z,63.05
2023-02-02T14:39:19.766Z,63.43
2023-02-02T14:42:00.673Z,63.57
2023-02-02T14:44:06.345Z,63.89
2023-02-02T14:46:34.836Z,64.14
2023-02-02T14:48:39.166Z,64.20
2023-02-02T14:50:49.844Z,64.32
2023-02-02T14:53:03.955Z,64.25
2023-02-02T14:55:17.527Z,64.38
2023-02-02T14:57:26.405Z,64.70
2023-02-02T14:59:34.301Z,65.03
2023-02-02T15:01:39.218Z,65.08
2023-02-02T15:03:55.295Z,65.30
2023-02-02T15:06:05.317Z,65.44
2023-02-02T15:08:16.063Z,65.84
2023-02-02T15:10:53.903Z,66.10
2023-02-02T15:13:06.095Z,66.51
2023-02-02T15:15:21.328Z,66.58
2023-02-02T15:17:34.489Z,66.85
2023-02-02T15:19:41.535Z,67.19
2023-02-02T15:21:48.502Z,67.32
2023-02-02T15:23:53.146Z,67.55
2023-02-02T15:26:00.627Z,67.64
2023-02-02T15:28:13.229Z,67.82
2023-02-02T15:30:18.438Z,68.07
2023-02-02T15:32:25.198Z,68.45
2023-02-02T15:34:37.678Z,68.57
2023-02-02T15:36:43.258Z,68.77
2023-02-02T15:38:49.605Z,68.96
2023-02-02T15:40:56.695Z,69.14
2023-02-02T15:43:06.328Z,69.32
2023-02-02T15:45:32.119Z,69.47
2023-02-02T15:47:41.864Z,69.77
2023-02-02T15:49:46.133Z,69.93
2023-02-02T15:51:51.802Z,69.99
2023-02-02T15:53:54.830Z,70.22
2023-02-02T15:55:59.721Z,70.38
2023-02-02T15:58:03.601Z,70.34
2023-02-02T16:00:26.370Z,70.66
2023-02-02T16:02:36.689Z,70.76
2023-02-02T16:04:42.220Z,70.98
2023-02-02T16:06:46.178Z,71.05
2023-02-02T16:08:50.896Z,71.33
2023-02-02T16:11:05.193Z,71.47
2023-02-02T16:13:08.257Z,71.52
2023-02-02T16:15:19.938Z,71.81
2023-02-02T16:17:25.326Z,71.78
2023-02-02T16:19:28.379Z,71.88
2023-02-02T16:21:31.920Z,72.00
2023-02-02T16:23:38.154Z,72.25
2023-02-02T16:25:49.417Z,72.33
2023-02-02T16:27:54.137Z,72.51
2023-02-02T16:30:00.806Z,72.52
2023-02-02T16:32:05.066Z,72.88
2023-02-02T16:34:16.267Z,73.04
2023-02-02T16:36:25.431Z,73.18
2023-02-02T16:38:33.210Z,73.25
2023-02-02T16:40:36.586Z,73.43
2023-02-02T16:42:39.749Z,73.42
2023-02-02T16:44:44.737Z,73.70
2023-02-02T16:46:51.370Z,73.63
2023-02-02T16:49:02.204Z,73.83
2023-02-02T16:51:31.605Z,74.07
2023-02-02T16:53:39.348Z,74.19
2023-02-02T16:55:51.193Z,74.28
2023-02-02T16:57:54.586Z,74.27
2023-02-02T17:00:02.097Z,74.66
2023-02-02T17:02:21.947Z,74.59
2023-02-02T17:04:27.081Z,74.96
2023-02-02T17:06:45.766Z,75.14
2023-02-02T17:08:54.735Z,75.49
2023-02-02T17:11:09.151Z,75.46
2023-02-02T17:13:38.402Z,75.55
2023-02-02T17:15:42.827Z,75.76
2023-02-02T17:17:47.775Z,75.80
2023-02-02T17:19:51.071Z,76.06
2023-02-02T17:21:54.158Z,76.06
2023-02-02T17:23:57.211Z,76.12
2023-02-02T17:26:00.766Z,76.27
2023-02-02T17:28:07.798Z,76.32
2023-02-02T17:30:16.691Z,76.50
2023-02-02T17:32:21.168Z,76.58
2023-02-02T17:34:24.787Z,76.64
2023-02-02T17:36:27.941Z,76.90
2023-02-02T17:38:31.007Z,77.04
2023-02-02T17:40:34.768Z,77.12
2023-02-02T17:42:38.598Z,77.14
2023-02-02T17:44:41.679Z,77.32
2023-02-02T17:46:44.882Z,77.32
2023-02-02T17:48:49.370Z,77.41
2023-02-02T17:50:52.640Z,77.29
2023-02-02T17:52:56.050Z,77.47
2023-02-02T17:54:59.110Z,77.39
2023-02-02T17:57:02.205Z,77.33
2023-02-02T17:59:05.247Z,77.42
2023-02-02T18:01:08.593Z,77.57
2023-02-02T18:03:14.364Z,77.67
2023-02-02T18:05:19.740Z,77.67
2023-02-02T18:07:22.877Z,77.83
2023-02-02T18:09:26.206Z,77.82
2023-02-02T18:11:29.333Z,77.66
2023-02-02T18:13:33.006Z,77.63
2023-02-02T18:15:36.088Z,77.67
2023-02-02T18:17:39.304Z,77.64
2023-02-02T18:19:45.052Z,77.71
2023-02-02T18:21:49.706Z,77.68
2023-02-02T18:23:53.070Z,77.52
2023-02-02T18:25:56.155Z,77.44
2023-02-02T18:27:59.204Z,77.54
2023-02-02T18:30:02.246Z,77.50
2023-02-02T18:32:05.711Z,77.68
2023-02-02T18:34:08.797Z,77.43
2023-02-02T18:36:14.322Z,77.48
2023-02-02T18:38:19.646Z,77.66
2023-02-02T18:40:22.764Z,77.54
2023-02-02T18:42:29.824Z,77.69
2023-02-02T18:44:34.469Z,77.42
2023-02-02T18:46:37.931Z,77.68
2023-02-02T18:48:41.493Z,77.61
2023-02-02T18:50:44.543Z,77.45
2023-02-02T18:52:47.715Z,77.30
2023-02-02T18:54:52.159Z,77.41
2023-02-02T18:56:55.244Z,77.17
2023-02-02T18:58:59.626Z,77.33
2023-02-02T19:01:08.547Z,77.36
2023-02-02T19:03:11.601Z,77.33
2023-02-02T19:05:31.809Z,77.26
2023-02-02T19:07:52.438Z,77.33
2023-02-02T19:09:57.047Z,77.23
2023-02-02T19:12:00.341Z,77.11
2023-02-02T19:14:03.462Z,76.92
2023-02-02T19:16:15.380Z,77.08
2023-02-02T19:18:21.285Z,77.04
2023-02-02T19:20:29.117Z,76.94
2023-02-02T19:22:33.607Z,76.83
2023-02-02T19:24:39.860Z,76.95
2023-02-02T19:26:47.049Z,77.14
2023-02-02T19:28:50.335Z,76.97
2023-02-02T19:30:54.622Z,77.04
2023-02-02T19:32:57.739Z,76.91
2023-02-02T19:35:02.713Z,76.87
2023-02-02T19:37:23.109Z,76.80
2023-02-02T19:39:31.842Z,76.91
2023-02-02T19:41:39.288Z,76.78
2023-02-02T19:43:47.623Z,76.86
2023-02-02T19:45:51.093Z,76.93
2023-02-02T19:47:56.033Z,76.93
2023-02-02T19:50:01.177Z,77.05
2023-02-02T19:52:05.353Z,77.28
2023-02-02T19:54:34.089Z,77.62
2023-02-02T19:56:40.395Z,77.66
2023-02-02T19:58:44.981Z,77.99
2023-02-02T20:00:48.888Z,78.44
2023-02-02T20:03:00.480Z,78.53
2023-02-02T20:05:15.959Z,79.05
2023-02-02T20:07:22.174Z,79.44
2023-02-02T20:09:27.087Z,79.76
2023-02-02T20:11:35.712Z,79.76
2023-02-02T20:13:45.513Z,80.13
2023-02-02T20:15:51.073Z,80.11
2023-02-02T20:17:55.002Z,80.41
2023-02-02T20:19:58.109Z,80.75
2023-02-02T20:22:01.255Z,80.75
2023-02-02T20:24:05.064Z,81.05
2023-02-02T20:26:24.173Z,81.24
2023-02-02T20:28:43.252Z,81.29
2023-02-02T20:30:46.368Z,81.40
2023-02-02T20:32:55.152Z,81.32
2023-02-02T20:35:00.007Z,81.69
2023-02-02T20:37:06.738Z,81.86
2023-02-02T20:39:30.580Z,81.91
2023-02-02T20:41:33.640Z,82.12
2023-02-02T20:43:36.840Z,82.15
2023-02-02T20:45:40.092Z,82.26
2023-02-02T20:47:43.310Z,82.20
2023-02-02T20:49:48.554Z,82.53
2023-02-02T20:51:51.907Z,82.44
2023-02-02T20:53:56.619Z,82.74
2023-02-02T20:56:02.133Z,82.75
2023-02-02T20:58:05.564Z,82.76
2023-02-02T21:00:11.123Z,82.84
2023-02-02T21:02:19.058Z,83.04
2023-02-02T21:04:23.070Z,83.05
2023-02-02T21:06:28.777Z,83.17
2023-02-02T21:08:33.154Z,83.20
2023-02-02T21:10:36.213Z,83.17
2023-02-02T21:12:40.259Z,83.32
2023-02-02T21:14:45.013Z,83.19
2023-02-02T21:16:48.270Z,83.48
2023-02-02T21:18:51.823Z,83.60
2023-02-02T21:20:54.928Z,83.48
2023-02-02T21:22:59.565Z,83.57
2023-02-02T21:25:02.610Z,83.61
2023-02-02T21:27:05.781Z,83.67
2023-02-02T21:29:08.968Z,83.70
2023-02-02T21:31:14.877Z,83.61
2023-02-02T21:33:18.054Z,83.66
2023-02-02T21:35:21.141Z,83.70
2023-02-02T21:37:24.197Z,83.63
2023-02-02T21:39:31.667Z,83.59
2023-02-02T21:41:34.838Z,83.72
2023-02-02T21:43:38.543Z,83.96
2023-02-02T21:45:43.928Z,84.01
2023-02-02T21:47:54.978Z,84.07
2023-02-02T21:50:00.227Z,84.07
2023-02-02T21:52:13.540Z,84.07
2023-02-02T21:54:22.066Z,84.30
2023-02-02T21:56:29.227Z,84.41
2023-02-02T21:58:35.090Z,84.30
2023-02-02T22:00:38.820Z,84.32
2023-02-02T22:02:45.198Z,84.56
2023-02-02T22:04:48.365Z,84.38
2023-02-02T22:06:53.555Z,84.61
2023-02-02T22:09:02.234Z,84.67
2023-02-02T22:11:06.678Z,84.85
2023-02-02T22:13:18.820Z,84.82
2023-02-02T22:15:23.362Z,84.79
2023-02-02T22:17:30.281Z,84.94
2023-02-02T22:19:35.316Z,85.08
2023-02-02T22:21:38.324Z,85.40
2023-02-02T22:23:41.448Z,85.36
2023-02-02T22:25:46.430Z,85.17
2023-02-02T22:27:51.745Z,85.36
2023-02-02T22:30:03.571Z,85.37
2023-02-02T22:32:06.626Z,85.45
2023-02-02T22:34:09.709Z,85.47
2023-02-02T22:36:12.858Z,85.61
2023-02-02T22:38:18.927Z,85.72
2023-02-02T22:40:23.354Z,85.73
2023-02-02T22:42:26.462Z,85.74
2023-02-02T22:44:29.527Z,85.83
2023-02-02T22:46:34.009Z,85.77
2023-02-02T22:48:37.187Z,86.09
2023-02-02T22:50:41.036Z,86.15
2023-02-02T22:52:44.348Z,86.04
2023-02-02T22:54:47.347Z,86.09
2023-02-02T22:56:50.383Z,86.23
2023-02-02T22:58:53.416Z,86.25
2023-02-02T23:00:56.452Z,86.54
2023-02-02T23:03:01.172Z,86.50
2023-02-02T23:05:04.330Z,86.38
2023-02-02T23:07:07.370Z,86.66
2023-02-02T23:09:10.410Z,86.52
2023-02-02T23:11:13.457Z,86.72
2023-02-02T23:13:16.517Z,86.56
2023-02-02T23:15:19.744Z,86.83
2023-02-02T23:17:23.005Z,86.84
2023-02-02T23:19:27.416Z,86.76
2023-02-02T23:21:30.548Z,86.97
2023-02-02T23:23:33.758Z,86.92
2023-02-02T23:25:36.818Z,87.09
2023-02-02T23:27:40.319Z,87.37
2023-02-02T23:29:43.422Z,87.37
2023-02-02T23:31:46.560Z,87.19
2023-02-02T23:33:49.626Z,87.39
2023-02-02T23:35:54.158Z,87.48
2023-02-02T23:37:57.179Z,87.26
2023-02-02T23:40:00.247Z,87.48
2023-02-02T23:42:03.274Z,87.57
2023-02-02T23:44:06.601Z,87.71
2023-02-02T23:46:09.831Z,87.69
2023-02-02T23:48:13.120Z,87.80
2023-02-02T23:50:16.404Z,87.81
2023-02-02T23:52:21.160Z,87.63
2023-02-02T23:54:24.336Z,87.89
2023-02-02T23:56:27.779Z,87.93
2023-02-02T23:58:30.861Z,88.05
